createdAt,value
2022-07-30T00:02:23.272Z,3.72
2022-07-30T00:05:45.030Z,3.30
2022-07-30T00:09:06.845Z,3.20
2022-07-30T00:12:28.672Z,3.42
2022-07-30T00:15:50.479Z,3.35
2022-07-30T00:19:12.468Z,2.95
2022-07-30T00:22:34.689Z,3.33
2022-07-30T00:25:56.529Z,3.00
2022-07-30T00:29:18.219Z,3.10
2022-07-30T00:32:40.236Z,3.17
2022-07-30T00:36:04.346Z,3.47
2022-07-30T00:39:29.482Z,2.70
2022-07-30T00:42:51.339Z,2.88
2022-07-30T00:46:14.731Z,3.25
2022-07-30T00:49:37.752Z,3.10
2022-07-30T00:53:02.192Z,3.30
2022-07-30T00:56:23.923Z,3.67
2022-07-30T00:59:45.798Z,3.97
2022-07-30T01:03:07.756Z,3.47
2022-07-30T01:06:29.620Z,3.97
2022-07-30T01:09:51.389Z,4.03
2022-07-30T01:13:13.408Z,3.50
2022-07-30T01:16:38.043Z,3.88
2022-07-30T01:20:06.035Z,4.93
2022-07-30T01:23:43.282Z,3.95
2022-07-30T01:27:07.496Z,3.70
2022-07-30T01:30:39.866Z,3.72
2022-07-30T01:34:03.066Z,4.05
2022-07-30T01:37:26.819Z,3.83
2022-07-30T01:40:52.034Z,4.18
2022-07-30T01:44:15.354Z,4.18
2022-07-30T01:47:46.483Z,3.92
2022-07-30T01:51:10.499Z,3.95
2022-07-30T01:54:34.895Z,4.30
2022-07-30T01:57:58.430Z,4.13
2022-07-30T02:01:23.428Z,3.50
2022-07-30T02:04:47.590Z,4.25
2022-07-30T02:08:31.374Z,3.58
2022-07-30T02:12:15.287Z,3.38
2022-07-30T02:15:51.815Z,3.95
2022-07-30T02:19:15.907Z,4.22
2022-07-30T02:22:41.097Z,3.92
2022-07-30T02:26:04.682Z,4.15
2022-07-30T02:29:26.729Z,5.03
2022-07-30T02:32:49.528Z,4.70
2022-07-30T02:36:13.491Z,4.32
2022-07-30T02:39:41.678Z,4.68
2022-07-30T02:43:05.240Z,4.45
2022-07-30T02:46:28.564Z,4.10
2022-07-30T02:50:24.789Z,4.00
2022-07-30T02:53:51.847Z,4.40
2022-07-30T02:57:15.381Z,4.10
2022-07-30T03:00:38.730Z,4.15
2022-07-30T03:04:01.720Z,4.00
2022-07-30T03:07:25.007Z,4.35
2022-07-30T03:10:48.362Z,4.45
2022-07-30T03:14:11.248Z,4.18
2022-07-30T03:17:38.437Z,4.03
2022-07-30T03:21:01.464Z,4.15
2022-07-30T03:24:25.302Z,4.43
2022-07-30T03:27:48.484Z,4.18
2022-07-30T03:31:11.757Z,4.32
2022-07-30T03:34:35.214Z,4.13
2022-07-30T03:37:57.406Z,4.45
2022-07-30T03:41:21.167Z,4.28
2022-07-30T03:44:45.781Z,4.25
2022-07-30T03:48:10.665Z,3.92
2022-07-30T03:51:36.707Z,4.45
2022-07-30T03:55:00.046Z,4.70
2022-07-30T03:58:36.032Z,4.93
2022-07-30T04:02:07.202Z,4.97
2022-07-30T04:06:01.935Z,4.40
2022-07-30T04:09:24.746Z,4.97
2022-07-30T04:12:46.564Z,4.50
2022-07-30T04:16:40.970Z,4.45
2022-07-30T04:20:20.481Z,4.43
2022-07-30T04:24:02.910Z,4.40
2022-07-30T04:27:26.994Z,4.57
2022-07-30T04:30:49.382Z,4.43
2022-07-30T04:34:15.024Z,4.88
2022-07-30T04:37:36.963Z,5.90
2022-07-30T04:40:59.681Z,6.00
2022-07-30T04:44:25.187Z,6.18
2022-07-30T04:48:07.592Z,6.53
2022-07-30T04:51:33.515Z,6.40
2022-07-30T04:54:59.587Z,6.47
2022-07-30T04:58:24.352Z,5.97
2022-07-30T05:01:50.452Z,6.70
2022-07-30T05:05:14.263Z,6.45
2022-07-30T05:08:36.407Z,5.70
2022-07-30T05:12:01.286Z,5.55
2022-07-30T05:15:37.244Z,5.82
2022-07-30T05:19:01.010Z,4.80
2022-07-30T05:22:30.661Z,5.70
2022-07-30T05:25:52.403Z,5.03
2022-07-30T05:29:24.213Z,4.70
2022-07-30T05:32:51.651Z,4.78
2022-07-30T05:36:13.612Z,5.55
2022-07-30T05:39:35.730Z,5.20
2022-07-30T05:43:38.735Z,5.57
2022-07-30T05:47:00.753Z,5.60
2022-07-30T05:50:22.776Z,5.43
2022-07-30T05:53:44.572Z,5.50
2022-07-30T05:57:25.306Z,5.68
2022-07-30T06:00:47.451Z,5.65
2022-07-30T06:04:09.552Z,5.72
2022-07-30T06:07:38.140Z,4.80
2022-07-30T06:11:00.724Z,5.28
2022-07-30T06:14:22.755Z,5.00
2022-07-30T06:17:57.075Z,5.05
2022-07-30T06:22:05.808Z,5.25
2022-07-30T06:25:25.526Z,4.55
2022-07-30T06:28:47.557Z,4.40
2022-07-30T06:32:19.425Z,4.07
2022-07-30T06:35:41.534Z,4.50
2022-07-30T06:39:04.703Z,4.32
2022-07-30T06:42:45.550Z,4.80
2022-07-30T06:46:36.781Z,5.57
2022-07-30T06:50:00.843Z,4.80
2022-07-30T06:53:24.970Z,5.18
2022-07-30T06:57:05.232Z,5.13
2022-07-30T07:00:28.314Z,5.55
2022-07-30T07:03:51.278Z,5.47
2022-07-30T07:07:13.777Z,5.38
2022-07-30T07:10:37.022Z,4.93
2022-07-30T07:14:22.876Z,4.80
2022-07-30T07:17:44.775Z,4.82
2022-07-30T07:21:26.762Z,5.53
2022-07-30T07:24:50.311Z,5.18
2022-07-30T07:28:16.607Z,6.18
2022-07-30T07:32:05.228Z,6.95
2022-07-30T07:35:22.080Z,6.82
2022-07-30T07:38:45.595Z,6.25
2022-07-30T07:42:07.962Z,5.72
2022-07-30T07:45:31.816Z,5.65
2022-07-30T07:48:59.639Z,6.03
2022-07-30T07:52:28.744Z,5.53
2022-07-30T07:55:50.807Z,5.30
2022-07-30T07:59:13.494Z,5.43
2022-07-30T08:02:39.498Z,5.03
2022-07-30T08:06:06.808Z,5.90
2022-07-30T08:09:47.779Z,4.78
2022-07-30T08:13:48.647Z,4.78
2022-07-30T08:17:21.893Z,4.68
2022-07-30T08:21:02.053Z,4.80
2022-07-30T08:24:27.108Z,4.78
2022-07-30T08:27:48.917Z,5.00
2022-07-30T08:31:11.691Z,4.68
2022-07-30T08:34:33.559Z,4.35
2022-07-30T08:37:58.134Z,4.10
2022-07-30T08:41:21.861Z,3.92
2022-07-30T08:44:46.155Z,3.20
2022-07-30T08:48:16.259Z,3.70
2022-07-30T08:51:40.303Z,3.60
2022-07-30T08:55:25.589Z,3.53
2022-07-30T08:58:47.865Z,2.67
2022-07-30T09:02:13.038Z,2.97
2022-07-30T09:05:49.902Z,2.80
2022-07-30T09:09:11.614Z,2.80
2022-07-30T09:12:43.491Z,2.97
2022-07-30T09:16:06.465Z,3.17
2022-07-30T09:19:31.873Z,2.08
2022-07-30T09:22:59.317Z,1.77
2022-07-30T09:27:02.135Z,2.10
2022-07-30T09:30:54.826Z,1.90
2022-07-30T09:34:42.804Z,2.00
2022-07-30T09:38:51.511Z,1.75
2022-07-30T09:42:40.024Z,1.80
2022-07-30T09:46:04.898Z,2.78
2022-07-30T09:49:29.102Z,1.95
2022-07-30T09:52:53.230Z,1.70
2022-07-30T09:56:30.155Z,2.53
2022-07-30T09:59:53.831Z,1.65
2022-07-30T10:03:41.798Z,1.73
2022-07-30T10:07:25.478Z,1.50
2022-07-30T10:10:50.852Z,1.80
2022-07-30T10:14:13.369Z,2.30
2022-07-30T10:17:38.520Z,1.85
2022-07-30T10:21:28.307Z,1.65
2022-07-30T10:25:22.885Z,1.52
2022-07-30T10:29:04.267Z,1.40
2022-07-30T10:32:30.952Z,1.50
2022-07-30T10:35:54.251Z,1.15
2022-07-30T10:39:21.752Z,1.27
2022-07-30T10:43:09.575Z,1.50
2022-07-30T10:46:55.831Z,1.00
2022-07-30T10:50:22.707Z,1.10
2022-07-30T10:53:46.628Z,0.90
2022-07-30T10:57:31.797Z,1.10
2022-07-30T11:00:54.513Z,0.98
2022-07-30T11:04:29.778Z,1.23
2022-07-30T11:07:51.681Z,1.10
2022-07-30T11:12:00.961Z,1.05
2022-07-30T11:15:07.205Z,1.02
2022-07-30T11:19:53.181Z,1.15
2022-07-30T11:22:50.872Z,1.20
2022-07-30T11:26:46.474Z,1.05
2022-07-30T11:30:21.237Z,0.85
2022-07-30T11:33:45.581Z,0.90
2022-07-30T11:37:18.426Z,0.90
2022-07-30T11:40:49.862Z,0.75
2022-07-30T11:44:28.865Z,0.77
2022-07-30T11:47:52.686Z,0.75
2022-07-30T11:51:14.428Z,0.70
2022-07-30T11:54:52.598Z,0.77
2022-07-30T11:58:33.809Z,0.98
2022-07-30T12:01:56.933Z,0.75
2022-07-30T12:05:28.046Z,0.70
2022-07-30T12:08:57.886Z,1.30
2022-07-30T12:12:25.058Z,0.75
2022-07-30T12:15:48.727Z,1.05
2022-07-30T12:19:10.490Z,0.75
2022-07-30T12:22:34.325Z,0.88
2022-07-30T12:25:57.310Z,0.70
2022-07-30T12:29:20.064Z,0.45
2022-07-30T12:32:45.533Z,1.00
2022-07-30T12:36:08.047Z,0.60
2022-07-30T12:39:29.800Z,0.80
2022-07-30T12:42:54.793Z,0.38
2022-07-30T12:46:23.580Z,0.45
2022-07-30T12:49:49.004Z,0.52
2022-07-30T12:53:12.042Z,0.68
2022-07-30T12:56:34.730Z,0.60
2022-07-30T13:00:07.045Z,0.60
2022-07-30T13:03:38.977Z,0.57
2022-07-30T13:07:10.498Z,0.47
2022-07-30T13:10:32.294Z,0.57
2022-07-30T13:13:54.217Z,4.47
2022-07-30T13:17:16.033Z,1.55
2022-07-30T13:20:37.733Z,0.95
2022-07-30T13:24:00.445Z,0.75
2022-07-30T13:27:22.231Z,1.30
2022-07-30T13:30:44.394Z,0.50
2022-07-30T13:34:06.203Z,0.65
2022-07-30T13:37:37.925Z,0.73
2022-07-30T13:41:02.971Z,0.55
2022-07-30T13:44:24.968Z,0.80
2022-07-30T13:47:47.850Z,0.57
2022-07-30T13:51:09.569Z,0.60
2022-07-30T13:54:31.424Z,0.45
2022-07-30T13:57:53.441Z,0.30
2022-07-30T14:01:17.752Z,0.50
2022-07-30T14:04:40.329Z,0.68
2022-07-30T14:08:03.325Z,0.60
2022-07-30T14:11:25.263Z,0.60
2022-07-30T14:14:46.992Z,0.77
2022-07-30T14:18:08.693Z,0.40
2022-07-30T14:21:30.469Z,0.50
2022-07-30T14:24:52.281Z,0.57
2022-07-30T14:28:14.549Z,1.50
2022-07-30T14:31:36.376Z,0.90
2022-07-30T14:34:58.608Z,0.60
2022-07-30T14:38:20.302Z,1.48
2022-07-30T14:41:43.005Z,0.98
2022-07-30T14:45:05.591Z,0.60
2022-07-30T14:48:27.245Z,0.40
2022-07-30T14:51:49.140Z,0.50
2022-07-30T14:55:10.894Z,0.50
2022-07-30T14:58:32.708Z,0.50
2022-07-30T15:01:56.993Z,0.60
2022-07-30T15:05:18.839Z,0.47
2022-07-30T15:08:40.895Z,1.08
2022-07-30T15:12:08.065Z,0.55
2022-07-30T15:15:38.200Z,0.35
2022-07-30T15:19:00.172Z,0.47
2022-07-30T15:22:22.183Z,0.40
2022-07-30T15:25:43.999Z,0.40
2022-07-30T15:29:08.274Z,0.77
2022-07-30T15:32:32.262Z,0.60
2022-07-30T15:35:54.028Z,0.40
2022-07-30T15:39:17.794Z,0.50
2022-07-30T15:42:39.831Z,0.60
2022-07-30T15:46:01.538Z,0.57
2022-07-30T15:49:23.465Z,0.68
2022-07-30T15:52:45.407Z,0.57
2022-07-30T15:56:07.175Z,0.60
2022-07-30T15:59:29.602Z,0.77
2022-07-30T16:02:51.481Z,1.10
2022-07-30T16:06:13.655Z,0.70
2022-07-30T16:09:35.362Z,1.00
2022-07-30T16:12:57.118Z,1.50
2022-07-30T16:16:18.878Z,0.50
2022-07-30T16:19:41.606Z,0.82
2022-07-30T16:23:12.014Z,0.75
2022-07-30T16:26:37.081Z,1.33
2022-07-30T16:29:58.860Z,1.48
2022-07-30T16:33:20.854Z,0.80
2022-07-30T16:36:43.164Z,1.30
2022-07-30T16:40:05.715Z,1.77
2022-07-30T16:43:27.507Z,3.25
2022-07-30T16:46:49.445Z,4.00
2022-07-30T16:50:11.233Z,2.42
2022-07-30T16:53:33.407Z,1.40
2022-07-30T16:56:55.326Z,1.52
2022-07-30T17:00:18.139Z,1.30
2022-07-30T17:03:39.935Z,1.00
2022-07-30T17:07:01.682Z,0.80
2022-07-30T17:10:26.573Z,0.88
2022-07-30T17:13:48.954Z,0.88
2022-07-30T17:17:14.472Z,0.82
2022-07-30T17:20:36.518Z,0.82
2022-07-30T17:23:58.193Z,0.98
2022-07-30T17:27:20.136Z,0.85
2022-07-30T17:30:42.001Z,1.05
2022-07-30T17:34:03.710Z,0.80
2022-07-30T17:37:25.570Z,1.00
2022-07-30T17:40:48.084Z,1.10
2022-07-30T17:44:09.913Z,1.02
2022-07-30T17:47:31.678Z,1.20
2022-07-30T17:50:53.656Z,1.02
2022-07-30T17:54:15.558Z,1.02
2022-07-30T17:57:37.500Z,1.25
2022-07-30T18:01:02.547Z,1.30
2022-07-30T18:04:24.881Z,1.10
2022-07-30T18:07:46.768Z,1.17
2022-07-30T18:11:13.271Z,1.27
2022-07-30T18:14:35.461Z,1.00
2022-07-30T18:17:57.189Z,1.10
2022-07-30T18:21:20.579Z,1.10
2022-07-30T18:24:43.679Z,1.30
2022-07-30T18:28:05.920Z,1.17
2022-07-30T18:31:27.898Z,1.02
2022-07-30T18:34:49.574Z,1.17
2022-07-30T18:38:11.409Z,1.15
2022-07-30T18:41:33.221Z,1.10
2022-07-30T18:44:54.985Z,1.40
2022-07-30T18:48:16.729Z,1.00
2022-07-30T18:51:38.507Z,1.20
2022-07-30T18:55:00.339Z,1.20
2022-07-30T18:58:22.768Z,1.85
2022-07-30T19:01:44.538Z,1.50
2022-07-30T19:05:11.011Z,1.25
2022-07-30T19:08:32.747Z,1.13
2022-07-30T19:11:54.655Z,1.30
2022-07-30T19:15:16.471Z,1.30
2022-07-30T19:18:38.223Z,1.40
2022-07-30T19:22:00.165Z,1.20
2022-07-30T19:25:22.100Z,1.30
2022-07-30T19:28:43.998Z,1.20
2022-07-30T19:32:06.330Z,1.50
2022-07-30T19:35:28.032Z,1.58
2022-07-30T19:38:50.064Z,1.20
2022-07-30T19:42:12.188Z,1.20
2022-07-30T19:45:46.733Z,1.30
2022-07-30T19:49:10.867Z,1.38
2022-07-30T19:52:33.767Z,1.58
2022-07-30T19:55:56.725Z,1.75
2022-07-30T19:59:19.208Z,1.60
2022-07-30T20:03:00.901Z,1.65
2022-07-30T20:06:23.814Z,1.50
2022-07-30T20:09:45.571Z,1.27
2022-07-30T20:13:10.591Z,1.70
2022-07-30T20:16:35.447Z,1.73
2022-07-30T20:19:59.394Z,1.58
2022-07-30T20:23:21.642Z,1.73
2022-07-30T20:26:44.713Z,1.60
2022-07-30T20:30:08.899Z,1.42
2022-07-30T20:33:37.936Z,1.98
2022-07-30T20:37:15.057Z,1.85
2022-07-30T20:40:46.496Z,2.17
2022-07-30T20:44:11.157Z,1.98
2022-07-30T20:47:38.601Z,1.75
2022-07-30T20:51:02.240Z,1.77
2022-07-30T20:54:24.305Z,1.73
2022-07-30T21:01:28.514Z,1.95
2022-07-30T21:04:55.656Z,2.00
2022-07-30T21:08:20.122Z,1.92
2022-07-30T21:11:47.547Z,1.60
2022-07-30T21:15:23.808Z,1.90
2022-07-30T21:18:48.177Z,1.90
2022-07-30T21:22:12.385Z,1.70
2022-07-30T21:25:41.530Z,1.48
2022-07-30T21:29:18.438Z,1.90
2022-07-30T21:32:40.221Z,1.70
2022-07-30T21:36:02.003Z,1.88
2022-07-30T21:39:28.927Z,2.10
2022-07-30T21:42:51.956Z,2.10
2022-07-30T21:46:15.568Z,1.83
2022-07-30T21:49:46.964Z,2.03
2022-07-30T21:53:08.961Z,1.83
2022-07-30T21:56:30.930Z,1.55
2022-07-30T21:59:54.954Z,1.40
2022-07-30T22:04:01.630Z,1.70
2022-07-30T22:07:00.480Z,1.40
2022-07-30T22:10:26.580Z,1.70
2022-07-30T22:13:53.469Z,2.25
2022-07-30T22:17:23.623Z,1.48
2022-07-30T22:20:57.935Z,2.00
2022-07-30T22:24:29.247Z,1.98
2022-07-30T22:27:56.360Z,1.70
2022-07-30T22:31:19.002Z,1.50
2022-07-30T22:34:40.958Z,1.73
2022-07-30T22:38:04.195Z,1.92
2022-07-30T22:41:26.251Z,1.90
2022-07-30T22:44:51.153Z,1.90
2022-07-30T22:48:12.840Z,1.70
2022-07-30T22:52:01.798Z,1.70
2022-07-30T22:55:16.698Z,1.85
2022-07-30T22:58:44.182Z,1.88
2022-07-30T23:02:06.412Z,1.55
2022-07-30T23:05:35.279Z,1.98
2022-07-30T23:08:57.117Z,2.03
2022-07-30T23:12:20.247Z,2.03
2022-07-30T23:12:26.542Z,2.00
2022-07-30T23:15:42.120Z,1.67
2022-07-30T23:19:05.523Z,2.08
2022-07-30T23:22:27.367Z,1.70
2022-07-30T23:25:49.126Z,1.70
2022-07-30T23:29:13.494Z,2.03
2022-07-30T23:32:39.703Z,2.03
2022-07-30T23:36:01.814Z,1.98
2022-07-30T23:39:24.338Z,1.90
2022-07-30T23:42:49.912Z,2.00
2022-07-30T23:46:13.803Z,1.70
2022-07-30T23:49:35.738Z,1.90
2022-07-30T23:52:57.479Z,1.63
2022-07-30T23:56:19.235Z,1.73
2022-07-30T23:59:41.792Z,1.95
